Time;durP1;ratioP1;P1;durP2;ratioP2;P2;SDS_P1;SDS_P2;PMS_P1;PMS_P2;Temp;Humidity;BMP_temperature;BMP_pressure;BME280_temperature;BME280_humidity;BME280_pressure;Samples;Min_cycle;Max_cycle;Signal;HPM_P1;HPM_P2
2023/06/16 00:00:53;;;;;;;9.38;6.40;;;;;;;17.94;100.00;92576.59;5091619;28;20052;-73
2023/06/16 00:03:21;;;;;;;8.32;5.47;;;;;;;17.94;100.00;92571.41;5102703;28;20459;-73
2023/06/16 00:05:48;;;;;;;8.32;6.45;;;;;;;17.85;100.00;92561.59;5108443;28;20048;-73
2023/06/16 00:08:16;;;;;;;8.80;5.88;;;;;;;17.91;100.00;92562.31;5108585;28;20043;-73
2023/06/16 00:10:43;;;;;;;9.25;6.60;;;;;;;17.92;100.00;92561.31;5091606;28;20047;-74
2023/06/16 00:13:10;;;;;;;9.07;5.95;;;;;;;17.88;100.00;92557.69;5102903;28;20044;-73
2023/06/16 00:15:36;;;;;;;10.85;6.03;;;;;;;17.90;100.00;92561.56;5094048;28;20500;-73
2023/06/16 00:18:03;;;;;;;8.05;5.82;;;;;;;17.86;100.00;92544.97;5095864;28;20043;-73
2023/06/16 00:20:32;;;;;;;7.85;5.25;;;;;;;17.95;100.00;92557.38;5091529;28;20044;-73
2023/06/16 00:22:59;;;;;;;8.25;4.97;;;;;;;17.85;100.00;92546.00;5102555;28;20047;-73
2023/06/16 00:25:25;;;;;;;6.57;4.25;;;;;;;17.93;100.00;92559.47;5107562;28;20051;-73
2023/06/16 00:27:52;;;;;;;9.43;4.93;;;;;;;17.94;100.00;92563.59;5091448;28;20044;-73
2023/06/16 00:30:19;;;;;;;7.13;5.03;;;;;;;17.92;100.00;92557.91;5097620;28;20043;-73
2023/06/16 00:32:46;;;;;;;7.05;4.72;;;;;;;17.86;100.00;92560.56;5091920;28;20596;-73
2023/06/16 00:35:13;;;;;;;6.65;4.82;;;;;;;17.82;100.00;92543.19;5103690;28;20043;-73
2023/06/16 00:37:41;;;;;;;6.10;4.13;;;;;;;17.83;100.00;92553.28;5107710;28;20576;-73
2023/06/16 00:40:09;;;;;;;7.38;5.00;;;;;;;17.65;100.00;92525.38;5084307;28;20117;-73
2023/06/16 00:42:36;;;;;;;6.35;3.72;;;;;;;17.80;100.00;92550.47;5099514;28;20120;-73
2023/06/16 00:45:03;;;;;;;6.38;3.42;;;;;;;17.77;100.00;92556.97;5107757;28;20055;-73
2023/06/16 00:47:30;;;;;;;5.35;3.67;;;;;;;17.57;100.00;92527.50;5089182;28;20094;-73
2023/06/16 00:49:57;;;;;;;5.45;3.78;;;;;;;17.76;100.00;92555.41;5095194;28;20040;-73
2023/06/16 00:52:29;;;;;;;5.03;3.25;;;;;;;17.70;100.00;92546.91;5107288;28;20051;-73
2023/06/16 00:54:58;;;;;;;4.30;2.47;;;;;;;17.65;100.00;92546.94;5092740;28;20048;-73
2023/06/16 00:57:25;;;;;;;4.85;3.30;;;;;;;17.66;100.00;92550.28;5093982;28;20043;-73
2023/06/16 00:59:52;;;;;;;4.60;2.75;;;;;;;17.56;100.00;92538.16;5107901;28;20469;-73
2023/06/16 01:02:19;;;;;;;6.10;3.35;;;;;;;17.38;100.00;92522.16;5086425;28;20206;-73
2023/06/16 01:04:47;;;;;;;7.40;3.58;;;;;;;17.37;100.00;92525.81;5092597;28;20771;-73
2023/06/16 01:07:22;;;;;;;5.05;3.33;;;;;;;17.47;100.00;92540.53;5107485;28;20074;-73
2023/06/16 01:09:58;;;;;;;4.60;2.67;;;;;;;17.46;100.00;92534.56;5099897;28;20040;-73
2023/06/16 01:12:33;;;;;;;5.38;3.65;;;;;;;17.49;100.00;92543.63;5096857;28;20043;-73
2023/06/16 01:15:05;;;;;;;6.63;4.60;;;;;;;17.48;100.00;92540.28;5085162;28;20044;-73
2023/06/16 01:17:36;;;;;;;7.75;4.57;;;;;;;17.47;100.00;92536.13;5092956;28;20280;-73
2023/06/16 01:20:10;;;;;;;8.15;4.82;;;;;;;17.46;100.00;92528.63;5107212;28;20164;-73
2023/06/16 01:22:53;;;;;;;8.43;5.72;;;;;;;17.52;100.00;92531.94;5087841;28;20043;-73
2023/06/16 01:25:23;;;;;;;9.20;6.25;;;;;;;17.52;100.00;92531.94;5086689;28;20757;-73
2023/06/16 01:27:52;;;;;;;8.52;5.43;;;;;;;17.50;100.00;92520.00;5101638;28;20039;-73
2023/06/16 01:30:22;;;;;;;9.00;5.85;;;;;;;17.50;100.00;92511.47;5102476;28;20054;-73
2023/06/16 01:32:55;;;;;;;9.05;6.18;;;;;;;17.44;100.00;92502.91;5087709;28;20498;-73
2023/06/16 01:35:24;;;;;;;11.10;6.80;;;;;;;17.52;100.00;92513.75;5106270;28;20183;-73
2023/06/16 01:37:52;;;;;;;9.00;6.63;;;;;;;17.50;100.00;92507.03;5106836;28;20505;-73
2023/06/16 01:40:20;;;;;;;8.50;5.70;;;;;;;17.51;100.00;92507.81;5095860;28;20056;-73
2023/06/16 01:42:48;;;;;;;8.82;6.18;;;;;;;17.54;100.00;92514.28;5080917;28;20109;-73
2023/06/16 01:45:16;;;;;;;11.65;6.75;;;;;;;17.53;100.00;92503.13;5093621;28;20116;-73
2023/06/16 01:47:44;;;;;;;9.15;6.57;;;;;;;17.35;100.00;92510.50;5100261;28;20890;-73
2023/06/16 01:50:11;;;;;;;10.32;7.20;;;;;;;17.33;100.00;92509.22;5097864;28;20050;-73
2023/06/16 01:52:38;;;;;;;9.35;6.28;;;;;;;17.28;100.00;92494.47;5105801;28;20097;-73
2023/06/16 01:55:05;;;;;;;15.40;8.30;;;;;;;17.36;100.00;92504.25;5099451;28;20055;-73
2023/06/16 01:57:34;;;;;;;9.10;6.72;;;;;;;17.40;100.00;92514.13;5086967;28;20051;-73
2023/06/16 02:00:04;;;;;;;9.52;5.70;;;;;;;17.40;100.00;92508.91;5106117;28;20047;-73
2023/06/16 02:02:33;;;;;;;10.18;6.65;;;;;;;17.35;100.00;92497.53;5108170;28;20092;-73
2023/06/16 02:05:03;;;;;;;9.77;7.38;;;;;;;17.44;100.00;92508.09;5093133;28;20043;-73
2023/06/16 02:07:38;;;;;;;9.07;6.18;;;;;;;17.45;100.00;92501.09;5091419;28;20504;-73
2023/06/16 02:10:06;;;;;;;9.73;6.97;;;;;;;17.47;100.00;92507.56;5086975;28;20047;-72
2023/06/16 02:12:34;;;;;;;8.13;5.30;;;;;;;17.45;100.00;92503.69;5104882;28;20551;-73
2023/06/16 02:15:02;;;;;;;9.95;5.90;;;;;;;17.46;100.00;92510.44;5084169;28;20040;-73
2023/06/16 02:17:29;;;;;;;6.93;4.78;;;;;;;17.47;100.00;92512.78;5106301;28;20047;-73
2023/06/16 02:19:58;;;;;;;8.55;5.95;;;;;;;17.46;100.00;92510.44;5093165;28;20474;-73
2023/06/16 02:22:25;;;;;;;6.78;4.85;;;;;;;17.44;100.00;92508.09;5089824;28;20095;-73
2023/06/16 02:24:51;;;;;;;6.85;5.03;;;;;;;17.39;100.00;92505.53;5110684;28;20108;-73
2023/06/16 02:27:18;;;;;;;7.95;5.10;;;;;;;17.41;100.00;92510.47;5110375;28;20093;-73
2023/06/16 02:29:46;;;;;;;6.72;3.97;;;;;;;17.41;100.00;92508.63;5089661;28;20106;-73
2023/06/16 02:32:13;;;;;;;6.88;4.43;;;;;;;17.41;100.00;92502.69;5085621;28;20040;-73
2023/06/16 02:34:40;;;;;;;7.22;4.25;;;;;;;17.41;100.00;92510.47;5092082;28;20048;-73
2023/06/16 02:37:06;;;;;;;6.45;4.40;;;;;;;17.34;100.00;92508.94;5096049;28;20073;-73
2023/06/16 02:39:33;;;;;;;6.28;3.92;;;;;;;17.37;100.00;92507.63;5104110;28;20429;-73
2023/06/16 02:42:00;;;;;;;7.88;4.72;;;;;;;17.35;100.00;92512.31;5083127;28;20050;-72
2023/06/16 02:44:27;;;;;;;8.02;5.18;;;;;;;17.26;100.00;92488.75;5110164;28;20495;-73
2023/06/16 02:46:57;;;;;;;8.32;5.03;;;;;;;17.37;100.00;92507.63;5110300;28;20047;-73
2023/06/16 02:49:23;;;;;;;7.60;4.88;;;;;;;17.41;100.00;92515.66;5094350;28;20540;-73
2023/06/16 02:51:50;;;;;;;8.38;6.25;;;;;;;17.42;100.00;92496.44;5104567;28;20572;-73
2023/06/16 02:54:17;;;;;;;7.63;4.78;;;;;;;17.38;100.00;92506.59;5109993;28;20060;-73
2023/06/16 02:56:44;;;;;;;7.75;5.40;;;;;;;17.41;100.00;92498.25;5109819;28;20052;-73
2023/06/16 02:59:11;;;;;;;8.50;4.63;;;;;;;17.36;100.00;92495.72;5081888;28;20098;-72
2023/06/16 03:01:38;;;;;;;6.78;4.60;;;;;;;17.43;100.00;92500.56;5087276;28;20056;-73
2023/06/16 03:04:06;;;;;;;7.25;4.78;;;;;;;17.42;100.00;92510.22;5089135;28;20056;-73
2023/06/16 03:06:34;;;;;;;7.18;4.43;;;;;;;17.40;100.00;92495.94;5099936;28;20044;-72
2023/06/16 03:09:03;;;;;;;6.40;4.28;;;;;;;17.33;100.00;92502.22;5095836;28;20059;-72
2023/06/16 03:11:30;;;;;;;6.65;4.00;;;;;;;17.36;100.00;92498.31;5104327;28;20161;-79
2023/06/16 03:13:57;;;;;;;6.38;4.07;;;;;;;17.35;100.00;92487.13;5086549;28;20047;-73
2023/06/16 03:16:26;;;;;;;7.68;4.50;;;;;;;17.34;100.00;92493.38;5094515;28;20049;-73
2023/06/16 03:18:54;;;;;;;5.57;3.88;;;;;;;17.34;100.00;92495.97;5094624;28;20085;-73
2023/06/16 03:21:22;;;;;;;6.28;4.03;;;;;;;17.33;100.00;92494.44;5109462;28;20063;-73
2023/06/16 03:23:50;;;;;;;7.35;4.57;;;;;;;17.32;100.00;92492.09;5108948;28;20505;-73
2023/06/16 03:26:18;;;;;;;6.20;3.88;;;;;;;17.30;100.00;92488.97;5090238;28;20052;-73
2023/06/16 03:28:45;;;;;;;6.80;3.30;;;;;;;17.16;100.00;92481.78;5093616;28;20058;-73
2023/06/16 03:31:11;;;;;;;6.18;3.20;;;;;;;17.07;100.00;92476.41;5090928;28;20052;-73
2023/06/16 03:33:38;;;;;;;4.72;2.90;;;;;;;16.95;100.00;92476.69;5095625;28;20047;-73
2023/06/16 03:36:06;;;;;;;5.88;3.50;;;;;;;16.96;100.00;92474.88;5104055;28;20049;-73
2023/06/16 03:38:34;;;;;;;4.72;2.80;;;;;;;16.99;100.00;92476.16;5095716;28;20043;-73
2023/06/16 03:41:01;;;;;;;4.55;2.40;;;;;;;16.93;100.00;92475.38;5090055;28;20048;-73
2023/06/16 03:43:27;;;;;;;4.15;2.45;;;;;;;16.98;100.00;92474.59;5098032;28;20044;-73
2023/06/16 03:45:54;;;;;;;4.38;2.70;;;;;;;17.06;100.00;92480.03;5108520;28;20047;-73
2023/06/16 03:48:21;;;;;;;3.88;2.75;;;;;;;17.09;100.00;92473.53;5108197;28;20104;-73
2023/06/16 03:50:47;;;;;;;4.78;2.85;;;;;;;17.21;100.00;92476.56;5087368;28;20494;-73
2023/06/16 03:53:14;;;;;;;5.35;2.70;;;;;;;17.30;100.00;92474.19;5096055;28;20105;-73
2023/06/16 03:55:42;;;;;;;5.43;3.50;;;;;;;17.39;100.00;92476.22;5108670;28;20043;-73
2023/06/16 03:58:10;;;;;;;5.95;4.07;;;;;;;17.45;100.00;92473.31;5087543;28;20043;-73
2023/06/16 04:00:37;;;;;;;7.07;4.53;;;;;;;17.34;100.00;92445.88;5101854;28;20048;-72
2023/06/16 04:03:04;;;;;;;6.88;4.40;;;;;;;17.55;100.00;92466.50;5108269;28;20067;-72
2023/06/16 04:05:31;;;;;;;6.65;4.20;;;;;;;17.57;100.00;92461.78;5092045;28;20044;-73
2023/06/16 04:07:57;;;;;;;7.40;4.28;;;;;;;17.63;100.00;92476.28;5108373;28;20039;-73
2023/06/16 04:10:24;;;;;;;6.80;4.68;;;;;;;17.58;100.00;92479.72;5107299;28;20497;-73
2023/06/16 04:12:53;;;;;;;10.93;5.97;;;;;;;17.62;100.00;92477.34;5082698;28;20051;-73
2023/06/16 04:15:20;;;;;;;9.27;5.25;;;;;;;17.57;100.00;92472.19;5084627;28;20043;-73
2023/06/16 04:17:47;;;;;;;9.15;5.57;;;;;;;17.54;100.00;92463.13;5090073;28;20054;-73
2023/06/16 04:20:14;;;;;;;6.68;4.53;;;;;;;17.68;100.00;92475.50;5102861;28;20043;-73
2023/06/16 04:22:41;;;;;;;6.53;4.38;;;;;;;17.70;100.00;92473.41;5086887;28;20047;-73
2023/06/16 04:25:09;;;;;;;5.80;4.45;;;;;;;17.69;100.00;92472.59;5096721;28;20044;-72
2023/06/16 04:27:37;;;;;;;5.97;3.40;;;;;;;17.56;100.00;92470.63;5084107;28;20084;-73
2023/06/16 04:30:07;;;;;;;5.97;4.07;;;;;;;17.66;100.00;92470.56;5084984;28;20051;-72
2023/06/16 04:32:35;;;;;;;4.93;3.15;;;;;;;17.29;100.00;92471.84;5081394;28;20040;-73
2023/06/16 04:35:04;;;;;;;5.70;3.10;;;;;;;17.28;100.00;92468.50;5094546;28;20078;-72
2023/06/16 04:37:30;;;;;;;5.25;3.33;;;;;;;17.32;100.00;92469.50;5107617;28;20096;-72
2023/06/16 04:39:57;;;;;;;5.85;3.55;;;;;;;17.40;100.00;92469.97;5107786;28;20056;-72
2023/06/16 04:42:24;;;;;;;5.40;3.60;;;;;;;17.44;100.00;92476.94;5089920;28;20052;-73
2023/06/16 04:44:51;;;;;;;5.05;3.28;;;;;;;17.54;100.00;92480.53;5101066;28;20047;-72
2023/06/16 04:47:19;;;;;;;5.32;3.67;;;;;;;17.63;100.00;92478.88;5075096;28;20056;-73
2023/06/16 04:49:46;;;;;;;9.30;4.43;;;;;;;17.67;100.00;92479.91;5098511;28;20627;-73
2023/06/16 04:52:13;;;;;;;6.13;3.70;;;;;;;17.77;100.00;92482.44;5088240;28;20047;-73
2023/06/16 04:54:40;;;;;;;7.45;3.75;;;;;;;17.85;100.00;92480.28;5102472;28;20044;-73
2023/06/16 04:57:07;;;;;;;5.43;3.58;;;;;;;17.88;100.00;92483.09;5092322;28;20520;-73
2023/06/16 04:59:35;;;;;;;9.02;4.03;;;;;;;17.94;100.00;92473.47;5103878;28;20048;-73
2023/06/16 05:02:02;;;;;;;8.25;3.80;;;;;;;17.87;100.00;92473.75;5106965;28;20054;-74
2023/06/16 05:04:30;;;;;;;6.15;3.78;;;;;;;18.02;100.00;92482.50;5087163;28;20159;-73
2023/06/16 05:06:56;;;;;;;6.00;3.38;;;;;;;18.07;100.00;92479.88;5083677;28;20048;-73
2023/06/16 05:09:23;;;;;;;5.35;3.05;;;;;;;18.14;100.00;92475.13;5093872;28;20040;-73
2023/06/16 05:11:50;;;;;;;5.68;2.95;;;;;;;17.90;100.00;92477.66;5079580;28;20048;-73
2023/06/16 05:14:17;;;;;;;7.43;3.47;;;;;;;18.00;100.00;92479.38;5081094;28;20043;-73
2023/06/16 05:16:44;;;;;;;7.00;4.65;;;;;;;17.92;100.00;92472.97;5089474;28;20048;-73
2023/06/16 05:19:10;;;;;;;6.45;4.53;;;;;;;18.02;100.00;92478.06;5105793;28;20633;-73
2023/06/16 05:21:38;;;;;;;6.75;3.95;;;;;;;18.12;100.00;92484.25;5088811;28;20044;-73
2023/06/16 05:24:05;;;;;;;5.63;3.72;;;;;;;18.16;100.00;92477.44;5095311;28;20089;-73
2023/06/16 05:26:32;;;;;;;7.03;4.45;;;;;;;18.23;100.00;92480.50;5107489;28;20097;-72
2023/06/16 05:28:59;;;;;;;6.13;4.30;;;;;;;18.35;100.00;92489.75;5093983;28;20094;-72
2023/06/16 05:31:25;;;;;;;7.40;4.13;;;;;;;18.42;100.00;92493.56;5088221;28;20056;-72
2023/06/16 05:33:54;;;;;;;5.43;3.42;;;;;;;18.47;100.00;92492.72;5096639;28;20088;-73
2023/06/16 05:36:24;;;;;;;5.75;3.75;;;;;;;18.65;100.00;92490.47;5100184;28;20408;-73
2023/06/16 05:38:52;;;;;;;6.47;3.90;;;;;;;18.76;100.00;92491.13;5110441;28;20066;-73
2023/06/16 05:41:23;;;;;;;5.50;4.03;;;;;;;18.71;100.00;92486.78;5100740;28;20044;-72
2023/06/16 05:43:50;;;;;;;6.10;3.17;;;;;;;18.74;100.00;92483.59;5097131;28;20040;-73
2023/06/16 05:46:17;;;;;;;5.43;3.08;;;;;;;18.63;100.00;92482.16;5094918;28;20052;-73
2023/06/16 05:48:44;;;;;;;6.07;4.03;;;;;;;18.74;100.00;92490.66;5095062;28;20170;-73
2023/06/16 05:51:10;;;;;;;5.18;3.35;;;;;;;18.69;100.00;92481.06;5110387;28;20048;-72
2023/06/16 05:53:37;;;;;;;5.55;3.35;;;;;;;18.71;100.00;92486.78;5111083;28;20093;-72
2023/06/16 05:56:05;;;;;;;4.63;3.30;;;;;;;18.79;100.00;92490.59;5094588;28;20048;-73
2023/06/16 05:58:33;;;;;;;5.05;3.70;;;;;;;18.67;100.00;92486.56;5105681;28;20039;-73
2023/06/16 06:01:00;;;;;;;5.10;3.30;;;;;;;18.78;100.00;92491.63;5090245;28;20090;-72
2023/06/16 06:03:27;;;;;;;5.43;3.63;;;;;;;18.74;100.00;92475.03;5096237;28;20062;-72
2023/06/16 06:05:55;;;;;;;4.38;3.00;;;;;;;18.88;100.00;92488.13;5090342;28;20509;-73
2023/06/16 06:08:26;;;;;;;5.25;3.28;;;;;;;18.91;100.00;92474.56;5101138;28;20043;-73
2023/06/16 06:10:53;;;;;;;5.25;3.47;;;;;;;19.01;100.00;92476.25;5110440;28;20035;-72
2023/06/16 06:13:21;;;;;;;7.07;3.30;;;;;;;18.78;100.00;92479.41;5106436;28;20610;-72
2023/06/16 06:15:48;;;;;;;4.72;3.00;;;;;;;18.92;100.00;92482.09;5094884;28;20100;-72
2023/06/16 06:18:16;;;;;;;6.43;3.10;;;;;;;18.71;100.00;92481.56;5110634;28;20490;-72
2023/06/16 06:20:44;;;;;;;6.32;3.90;;;;;;;18.75;100.00;92484.38;5109993;28;20052;-73
2023/06/16 06:23:11;;;;;;;5.38;3.22;;;;;;;18.82;100.00;92464.78;5090630;28;20135;-72
2023/06/16 06:25:40;;;;;;;5.50;3.97;;;;;;;18.74;100.00;92486.19;5097425;28;20949;-72
2023/06/16 06:28:07;;;;;;;5.35;3.63;;;;;;;18.58;100.00;92484.81;5109701;28;20055;-72
2023/06/16 06:30:35;;;;;;;6.03;4.18;;;;;;;18.91;100.00;92483.16;5101516;28;20040;-72
2023/06/16 06:33:02;;;;;;;6.05;3.88;;;;;;;19.05;100.00;92482.47;5091559;28;20052;-72
2023/06/16 06:35:29;;;;;;;5.57;3.50;;;;;;;19.18;100.00;92487.00;5109609;28;20123;-73
2023/06/16 06:37:56;;;;;;;4.68;2.85;;;;;;;19.57;100.00;92481.75;5092547;28;20044;-72
2023/06/16 06:40:23;;;;;;;5.80;3.80;;;;;;;19.84;100.00;92478.50;5092292;28;20052;-72
2023/06/16 06:42:49;;;;;;;5.53;3.45;;;;;;;20.04;100.00;92481.84;5109511;28;20067;-72
2023/06/16 06:45:16;;;;;;;5.72;3.47;;;;;;;20.27;100.00;92482.00;5109424;28;20549;-72
2023/06/16 06:47:44;;;;;;;5.05;3.45;;;;;;;20.28;100.00;92486.91;5087999;28;20044;-72
2023/06/16 06:50:11;;;;;;;5.75;3.05;;;;;;;20.50;100.00;92466.47;5099142;28;20458;-72
2023/06/16 06:52:38;;;;;;;4.72;3.22;;;;;;;20.63;100.00;92488.38;5094958;28;20048;-72
2023/06/16 06:55:05;;;;;;;6.00;3.40;;;;;;;20.74;100.00;92486.38;5102576;28;20048;-72
2023/06/16 06:57:32;;;;;;;4.88;3.03;;;;;;;20.72;100.00;92485.88;5109415;28;20132;-72
2023/06/16 06:59:58;;;;;;;5.10;3.00;;;;;;;20.70;100.00;92475.72;5109574;28;20112;-72
2023/06/16 07:02:25;;;;;;;5.63;3.30;;;;;;;20.26;100.00;92481.22;5089211;28;20043;-72
2023/06/16 07:04:53;;;;;;;4.63;3.25;;;;;;;20.15;100.00;92485.06;5099127;28;20044;-72
2023/06/16 07:07:20;;;;;;;5.25;2.95;;;;;;;19.97;100.00;92487.44;5077019;28;20068;-72
2023/06/16 07:09:47;;;;;;;8.50;5.10;;;;;;;19.76;100.00;92479.13;5081490;28;20109;-72
2023/06/16 07:12:14;;;;;;;4.43;3.17;;;;;;;19.86;100.00;92488.63;5099895;28;20048;-73
2023/06/16 07:14:41;;;;;;;5.28;3.00;;;;;;;20.03;100.00;92494.13;5109505;28;20087;-72
2023/06/16 07:17:08;;;;;;;8.07;4.32;;;;;;;20.04;100.00;92484.44;5088351;28;20138;-72
2023/06/16 07:19:34;;;;;;;8.30;3.88;;;;;;;20.06;100.00;92489.38;5102903;28;20070;-72
2023/06/16 07:22:04;;;;;;;7.93;4.57;;;;;;;20.35;100.00;92491.75;5083146;28;20640;-73
2023/06/16 07:24:30;;;;;;;5.50;3.72;;;;;;;20.21;100.00;92501.38;5103825;28;20036;-72
2023/06/16 07:26:59;;;;;;;5.93;4.03;;;;;;;20.42;100.00;92501.81;5088259;28;20056;-72
2023/06/16 07:29:26;;;;;;;5.82;3.72;;;;;;;20.55;100.00;92505.50;5100052;28;20043;-72
2023/06/16 07:31:53;;;;;;;6.30;3.95;;;;;;;20.68;100.00;92503.94;5093542;28;20044;-72
2023/06/16 07:34:20;;;;;;;5.80;3.85;;;;;;;20.84;100.00;92509.66;5109249;28;20435;-73
2023/06/16 07:36:47;;;;;;;6.10;3.60;;;;;;;20.44;100.00;92499.69;5080062;28;20556;-72
2023/06/16 07:39:15;;;;;;;6.18;4.43;;;;;;;20.72;100.00;92512.75;5099139;28;20120;-72
2023/06/16 07:41:42;;;;;;;8.30;3.97;;;;;;;20.87;100.00;92519.53;5108120;28;20040;-73
2023/06/16 07:44:09;;;;;;;7.22;4.25;;;;;;;20.85;100.00;92515.63;5094011;28;20052;-72
2023/06/16 07:46:35;;;;;;;7.35;5.25;;;;;;;20.76;100.00;92515.53;5098670;28;20097;-72
2023/06/16 07:49:02;;;;;;;6.68;3.70;;;;;;;20.80;100.00;92508.69;5091192;28;20110;-72
2023/06/16 07:51:29;;;;;;;6.20;3.90;;;;;;;20.43;100.00;92514.56;5096370;28;20534;-72
2023/06/16 07:53:55;;;;;;;6.30;3.92;;;;;;;20.56;100.00;92509.66;5096362;28;20044;-73
2023/06/16 07:56:24;;;;;;;6.50;4.40;;;;;;;20.24;100.00;92508.66;5099220;28;20443;-73
2023/06/16 07:58:50;;;;;;;6.32;4.05;;;;;;;20.40;100.00;92496.09;5108351;28;20097;-72
2023/06/16 08:01:17;;;;;;;8.15;4.78;;;;;;;20.53;100.00;92505.78;5087614;28;20055;-72
2023/06/16 08:03:46;;;;;;;7.32;4.78;;;;;;;20.66;100.00;92509.47;5100042;28;20039;-72
2023/06/16 08:06:13;;;;;;;7.47;4.97;;;;;;;20.92;100.00;92514.22;5108245;28;20044;-72
2023/06/16 08:08:39;;;;;;;7.88;5.35;;;;;;;21.02;100.00;92509.88;5100255;28;20086;-72
2023/06/16 08:11:07;;;;;;;6.85;4.53;;;;;;;21.07;100.00;92494.09;5093146;28;20048;-72
2023/06/16 08:13:35;;;;;;;5.55;4.07;;;;;;;21.15;100.00;92521.34;5095283;28;20051;-72
2023/06/16 08:16:02;;;;;;;4.95;3.63;;;;;;;20.75;100.00;92522.63;5090945;28;20047;-72
2023/06/16 08:18:29;;;;;;;6.55;4.35;;;;;;;21.07;100.00;92522.81;5108111;28;20108;-72
2023/06/16 08:20:56;;;;;;;6.28;4.00;;;;;;;21.20;100.00;92527.25;5108360;28;20059;-72
2023/06/16 08:23:22;;;;;;;5.88;3.70;;;;;;;21.42;100.00;92522.38;5081702;28;20394;-72
2023/06/16 08:25:50;;;;;;;8.15;4.68;;;;;;;21.56;100.00;92520.47;5094236;28;20035;-72
2023/06/16 08:28:18;;;;;;;7.30;4.47;;;;;;;21.66;100.00;92529.94;5108384;28;20043;-72
2023/06/16 08:30:46;;;;;;;8.20;4.13;;;;;;;21.72;100.00;92536.63;5086531;28;20609;-72
2023/06/16 08:33:13;;;;;;;7.03;4.25;;;;;;;21.71;100.00;92527.22;5102381;28;20416;-72
2023/06/16 08:35:40;;;;;;;6.95;4.07;;;;;;;21.74;100.00;92534.50;5095893;28;20059;-72
2023/06/16 08:38:07;;;;;;;7.57;4.10;;;;;;;21.62;100.00;92526.38;5101529;28;20623;-72
2023/06/16 08:40:33;;;;;;;8.23;4.70;;;;;;;21.18;100.00;92532.00;5107556;28;20055;-72
2023/06/16 08:43:05;;;;;;;7.57;4.63;;;;;;;21.01;100.00;92529.97;5080961;28;20044;-72
2023/06/16 08:45:34;;;;;;;5.70;3.92;;;;;;;20.79;100.00;92518.34;5096967;28;20089;-72
2023/06/16 08:48:04;;;;;;;7.97;4.70;;;;;;;20.47;100.00;92527.81;5092929;28;20039;-72
2023/06/16 08:50:32;;;;;;;8.23;4.80;;;;;;;20.42;100.00;92527.91;5095022;28;20048;-72
2023/06/16 08:53:00;;;;;;;12.60;5.97;;;;;;;20.38;100.00;92511.28;5105896;28;20048;-72
2023/06/16 08:55:29;;;;;;;13.35;6.78;;;;;;;20.20;100.00;92520.69;5089968;28;20117;-72
2023/06/16 08:57:58;;;;;;;11.60;7.72;;;;;;;19.87;100.00;92482.38;5106078;28;20125;-72
2023/06/16 09:00:26;;;;;;;7.85;4.32;;;;;;;19.72;100.00;92507.59;5090674;28;20049;-72
2023/06/16 09:02:56;;;;;;;6.80;4.75;;;;;;;19.99;100.00;92505.38;5100418;28;20089;-72
2023/06/16 09:05:26;;;;;;;7.65;4.50;;;;;;;20.11;100.00;92513.53;5107372;28;20402;-72
2023/06/16 09:07:53;;;;;;;9.45;4.93;;;;;;;20.00;100.00;92507.72;5094203;28;20102;-72
2023/06/16 09:10:20;;;;;;;7.85;5.05;;;;;;;20.10;100.00;92508.59;5085051;28;20064;-73
2023/06/16 09:12:52;;;;;;;8.18;4.78;;;;;;;20.49;100.00;92496.97;5109136;28;20045;-72
2023/06/16 09:15:19;;;;;;;8.70;5.65;;;;;;;20.77;100.00;92491.78;5094138;28;20515;-72
2023/06/16 09:17:48;;;;;;;7.90;4.35;;;;;;;21.28;100.00;92499.66;5105613;28;20549;-72
2023/06/16 09:20:15;;;;;;;6.03;4.03;;;;;;;21.94;100.00;92503.72;5103691;28;20055;-72
2023/06/16 09:22:49;;;;;;;6.43;4.13;;;;;;;22.46;100.00;92520.00;5101118;28;20039;-72
2023/06/16 09:25:17;;;;;;;4.30;2.88;;;;;;;22.64;100.00;92534.72;5111024;28;20546;-72
2023/06/16 09:27:46;;;;;;;7.15;4.07;;;;;;;22.60;100.00;92499.00;5088151;28;20505;-72
2023/06/16 09:30:14;;;;;;;6.47;4.25;;;;;;;21.95;100.00;92520.97;5107822;28;20083;-72
2023/06/16 09:32:41;;;;;;;6.70;4.03;;;;;;;22.54;100.00;92517.44;5097138;28;20059;-73
2023/06/16 09:35:21;;;;;;;15.23;5.68;;;;;;;22.14;100.00;92514.75;5104939;28;20534;-72
2023/06/16 09:37:50;;;;;;;6.95;3.80;;;;;;;22.06;100.00;92500.56;5089927;28;20402;-72
2023/06/16 09:40:19;;;;;;;6.82;3.80;;;;;;;21.96;100.00;92501.59;5110443;28;20060;-72
2023/06/16 09:42:47;;;;;;;7.05;3.85;;;;;;;21.85;100.00;92497.66;5090327;28;20167;-72
2023/06/16 09:45:15;;;;;;;7.63;4.90;;;;;;;21.72;100.00;92504.50;5111472;28;20048;-72
2023/06/16 09:47:44;;;;;;;6.75;4.47;;;;;;;22.10;100.00;92504.13;5111012;28;20393;-72
2023/06/16 09:50:14;;;;;;;7.15;4.32;;;;;;;22.30;100.00;92504.69;5086921;28;20047;-72
2023/06/16 09:52:42;;;;;;;7.78;4.85;;;;;;;21.58;100.00;92507.13;5101974;28;20051;-72
2023/06/16 09:55:11;;;;;;;7.72;4.60;;;;;;;21.87;100.00;92492.91;5110808;28;20083;-72
2023/06/16 09:57:38;;;;;;;6.57;4.43;;;;;;;21.80;100.00;92495.16;5095341;28;20041;-72
2023/06/16 10:00:09;;;;;;;8.68;5.40;;;;;;;21.39;100.00;92492.38;5106070;28;20122;-72
2023/06/16 10:02:36;;;;;;;7.25;4.32;;;;;;;21.34;100.00;92501.09;5091078;28;20063;-72
2023/06/16 10:05:07;;;;;;;7.50;4.95;;;;;;;21.61;100.00;92501.28;5101721;28;20489;-73
2023/06/16 10:07:34;;;;;;;9.80;5.22;;;;;;;21.83;100.00;92486.72;5110311;28;20132;-73
2023/06/16 10:10:04;;;;;;;9.80;5.80;;;;;;;22.01;100.00;92479.75;5108016;28;20043;-72
2023/06/16 10:12:37;;;;;;;10.95;6.50;;;;;;;21.91;100.00;92486.00;5096360;28;20039;-72
2023/06/16 10:15:04;;;;;;;8.93;5.63;;;;;;;21.73;100.00;92478.06;5110780;28;20145;-72
2023/06/16 10:17:32;;;;;;;8.35;6.18;;;;;;;21.78;100.00;92492.06;5105042;28;20117;-72
2023/06/16 10:20:00;;;;;;;7.90;5.30;;;;;;;22.16;100.00;92496.91;5088920;28;20048;-72
2023/06/16 10:22:27;;;;;;;8.75;5.60;;;;;;;22.20;100.00;92489.25;5089885;28;20100;-72
2023/06/16 10:24:55;;;;;;;6.72;4.55;;;;;;;22.57;100.00;92491.75;5103530;28;20082;-72
2023/06/16 10:27:22;;;;;;;6.82;4.63;;;;;;;22.84;100.00;92496.00;5100596;28;20083;-72
2023/06/16 10:29:51;;;;;;;8.43;5.00;;;;;;;23.05;100.00;92500.69;5103169;28;20103;-72
2023/06/16 10:32:18;;;;;;;8.60;4.90;;;;;;;23.25;100.00;92503.78;5110252;28;20048;-72
2023/06/16 10:34:51;;;;;;;7.07;4.57;;;;;;;23.19;100.00;92496.06;5105425;28;20226;-72
2023/06/16 10:37:22;;;;;;;9.45;5.20;;;;;;;23.28;100.00;92477.72;5078956;28;20063;-73
2023/06/16 10:39:49;;;;;;;7.75;5.20;;;;;;;23.25;100.00;92460.03;5086908;28;20390;-73
2023/06/16 10:42:16;;;;;;;7.20;4.90;;;;;;;23.36;100.00;92481.47;5103357;28;20043;-73
2023/06/16 10:44:43;;;;;;;8.35;5.32;;;;;;;23.13;100.00;92454.63;5109947;28;20088;-73
2023/06/16 10:47:54;;;;;;;8.38;5.53;;;;;;;23.18;100.00;92475.41;5095376;28;20067;-73
2023/06/16 10:50:29;;;;;;;8.63;5.90;;;;;;;23.27;100.00;92467.59;5096235;28;20051;-73
2023/06/16 10:52:56;;;;;;;8.13;5.50;;;;;;;23.22;100.00;92479.75;5093913;28;20048;-73
2023/06/16 10:55:33;;;;;;;7.45;5.03;;;;;;;23.22;100.00;92471.09;5110339;28;20049;-73
2023/06/16 10:58:24;;;;;;;8.48;5.35;;;;;;;23.34;100.00;92465.28;5109317;28;20466;-73
2023/06/16 11:00:59;;;;;;;7.38;4.90;;;;;;;23.36;100.00;92455.25;5098680;28;20446;-73
2023/06/16 11:03:35;;;;;;;7.63;5.20;;;;;;;23.40;100.00;92450.97;5078346;28;20044;-73
2023/06/16 11:06:03;;;;;;;7.85;4.95;;;;;;;23.48;100.00;92455.41;5106824;28;20044;-73
2023/06/16 11:08:29;;;;;;;7.80;5.20;;;;;;;23.59;100.00;92465.59;5109813;28;20051;-73
2023/06/16 11:11:05;;;;;;;6.60;4.70;;;;;;;23.71;100.00;92459.72;5089726;28;20044;-73
2023/06/16 11:13:35;;;;;;;7.28;5.40;;;;;;;23.58;100.00;92466.66;5093585;28;20443;-72
2023/06/16 11:16:03;;;;;;;8.65;5.55;;;;;;;23.36;100.00;92450.03;5109492;28;20043;-73
2023/06/16 11:18:33;;;;;;;12.65;5.80;;;;;;;23.42;100.00;92451.41;5109030;28;20055;-73
2023/06/16 11:21:01;;;;;;;7.35;5.13;;;;;;;22.95;100.00;92462.44;5088715;28;20040;-73
2023/06/16 11:23:29;;;;;;;8.77;5.53;;;;;;;23.16;100.00;92451.38;5103574;28;20093;-73
2023/06/16 11:26:03;;;;;;;6.45;4.32;;;;;;;23.28;100.00;92448.91;5099205;28;20078;-72
2023/06/16 11:28:30;;;;;;;7.50;4.47;;;;;;;23.07;100.00;92446.91;5095694;28;20409;-72